createdAt,value
2023-08-08T00:00:27.036Z,2.95
2023-08-08T00:02:53.909Z,2.25
2023-08-08T00:05:23.192Z,1.92
2023-08-08T00:07:49.920Z,1.75
2023-08-08T00:10:16.858Z,1.95
2023-08-08T00:12:43.489Z,2.55
2023-08-08T00:15:10.538Z,2.15
2023-08-08T00:17:37.273Z,2.50
2023-08-08T00:20:04.448Z,1.83
2023-08-08T00:22:31.149Z,2.20
2023-08-08T00:25:00.065Z,1.60
2023-08-08T00:27:28.908Z,1.55
2023-08-08T00:29:55.984Z,2.70
2023-08-08T00:32:22.623Z,1.73
2023-08-08T00:34:51.562Z,2.95
2023-08-08T00:37:18.238Z,2.35
2023-08-08T00:39:47.434Z,3.85
2023-08-08T00:42:14.568Z,2.20
2023-08-08T00:44:45.768Z,2.33
2023-08-08T00:47:12.595Z,1.83
2023-08-08T00:49:41.675Z,2.35
2023-08-08T00:52:11.512Z,1.77
2023-08-08T00:54:38.181Z,1.90
2023-08-08T00:57:09.788Z,2.13
2023-08-08T00:59:39.123Z,2.17
2023-08-08T01:02:06.069Z,2.38
2023-08-08T01:04:32.922Z,2.63
2023-08-08T01:07:16.812Z,2.53
2023-08-08T01:09:51.706Z,2.30
2023-08-08T01:12:18.709Z,2.00
2023-08-08T01:14:46.246Z,1.83
2023-08-08T01:17:14.442Z,1.33
2023-08-08T01:19:43.864Z,1.67
2023-08-08T01:22:36.795Z,1.95
2023-08-08T01:25:04.159Z,1.55
2023-08-08T01:27:30.856Z,1.67
2023-08-08T01:29:59.564Z,2.03
2023-08-08T01:32:26.273Z,1.75
2023-08-08T01:34:54.975Z,2.47
2023-08-08T01:37:43.993Z,1.95
2023-08-08T01:40:12.898Z,1.25
2023-08-08T01:42:44.328Z,1.40
2023-08-08T01:45:16.736Z,2.05
2023-08-08T01:47:43.687Z,2.55
2023-08-08T01:50:15.344Z,2.25
2023-08-08T01:52:44.461Z,1.92
2023-08-08T01:55:11.587Z,2.20
2023-08-08T01:57:40.332Z,2.33
2023-08-08T02:00:09.133Z,1.63
2023-08-08T02:02:38.883Z,1.75
2023-08-08T02:05:11.145Z,2.03
2023-08-08T02:07:37.926Z,2.72
2023-08-08T02:10:05.170Z,2.15
2023-08-08T02:12:36.526Z,1.92
2023-08-08T02:15:08.714Z,3.03
2023-08-08T02:17:41.345Z,2.03
2023-08-08T02:20:08.945Z,1.80
2023-08-08T02:22:35.843Z,1.80
2023-08-08T02:25:02.567Z,2.17
2023-08-08T02:27:31.798Z,1.70
2023-08-08T02:29:58.762Z,1.80
2023-08-08T02:32:25.565Z,1.83
2023-08-08T02:34:52.250Z,1.85
2023-08-08T02:37:21.103Z,2.05
2023-08-08T02:39:47.760Z,2.42
2023-08-08T02:42:14.461Z,1.63
2023-08-08T02:44:43.967Z,2.17
2023-08-08T02:47:13.060Z,2.55
2023-08-08T02:49:39.705Z,2.08
2023-08-08T02:52:11.220Z,1.90
2023-08-08T02:54:37.916Z,2.22
2023-08-08T02:57:07.296Z,2.83
2023-08-08T02:59:33.964Z,2.22
2023-08-08T03:02:04.669Z,2.28
2023-08-08T03:04:33.697Z,2.17
2023-08-08T03:07:02.944Z,2.75
2023-08-08T03:09:32.110Z,2.47
2023-08-08T03:11:59.132Z,2.35
2023-08-08T03:14:25.962Z,2.00
2023-08-08T03:16:52.605Z,1.48
2023-08-08T03:19:19.286Z,1.65
2023-08-08T03:21:48.286Z,1.80
2023-08-08T03:24:14.973Z,2.15
2023-08-08T03:26:43.663Z,1.88
2023-08-08T03:29:13.958Z,2.15
2023-08-08T03:31:40.688Z,2.45
2023-08-08T03:34:09.565Z,1.45
2023-08-08T03:36:41.090Z,1.60
2023-08-08T03:39:10.855Z,2.75
2023-08-08T03:41:38.059Z,2.03
2023-08-08T03:44:04.954Z,2.03
2023-08-08T03:46:36.456Z,2.50
2023-08-08T03:49:08.009Z,2.25
2023-08-08T03:51:34.811Z,2.22
2023-08-08T03:54:01.439Z,2.80
2023-08-08T03:56:31.110Z,2.50
2023-08-08T03:59:00.551Z,2.13
2023-08-08T04:01:27.332Z,1.55
2023-08-08T04:03:56.694Z,2.22
2023-08-08T04:06:25.591Z,2.42
2023-08-08T04:08:52.246Z,2.17
2023-08-08T04:11:18.957Z,2.53
2023-08-08T04:13:45.635Z,1.83
2023-08-08T04:16:12.315Z,1.73
2023-08-08T04:18:38.993Z,2.70
2023-08-08T04:21:05.651Z,2.58
2023-08-08T04:23:32.251Z,2.50
2023-08-08T04:25:58.998Z,2.38
2023-08-08T04:28:25.633Z,2.30
2023-08-08T04:30:52.334Z,2.25
2023-08-08T04:33:18.991Z,3.38
2023-08-08T04:35:48.672Z,2.00
2023-08-08T04:38:18.586Z,2.40
2023-08-08T04:40:49.980Z,1.83
2023-08-08T04:43:16.594Z,1.52
2023-08-08T04:45:43.272Z,2.63
2023-08-08T04:48:09.995Z,2.55
2023-08-08T04:50:36.695Z,3.00
2023-08-08T04:53:03.363Z,1.98
2023-08-08T04:55:30.018Z,3.05
2023-08-08T04:57:56.661Z,2.75
2023-08-08T05:00:23.548Z,2.10
2023-08-08T05:02:54.822Z,1.70
2023-08-08T05:05:21.693Z,1.80
2023-08-08T05:07:49.720Z,2.03
2023-08-08T05:10:16.436Z,2.50
2023-08-08T05:12:44.080Z,2.05
2023-08-08T05:15:13.435Z,2.53
2023-08-08T05:17:42.362Z,3.28
2023-08-08T05:20:13.283Z,2.95
2023-08-08T05:22:42.337Z,1.88
2023-08-08T05:25:13.896Z,2.58
2023-08-08T05:27:45.280Z,1.60
2023-08-08T05:30:14.526Z,3.40
2023-08-08T05:32:43.825Z,2.72
2023-08-08T05:35:15.259Z,2.20
2023-08-08T05:37:42.045Z,2.28
2023-08-08T05:40:14.597Z,1.45
2023-08-08T05:42:41.425Z,1.95
2023-08-08T05:45:11.448Z,2.38
2023-08-08T05:47:38.188Z,1.38
2023-08-08T05:50:05.217Z,2.13
2023-08-08T05:52:34.622Z,2.28
2023-08-08T05:55:01.669Z,2.15
2023-08-08T05:57:28.676Z,2.45
2023-08-08T05:59:55.418Z,2.20
2023-08-08T06:02:22.652Z,2.22
2023-08-08T06:04:49.382Z,2.28
2023-08-08T06:07:18.219Z,1.75
2023-08-08T06:09:44.878Z,1.48
2023-08-08T06:12:14.620Z,2.50
2023-08-08T06:14:41.330Z,1.80
2023-08-08T06:17:10.635Z,2.00
2023-08-08T06:19:37.383Z,1.95
2023-08-08T06:22:06.547Z,2.08
2023-08-08T06:24:35.468Z,2.03
2023-08-08T06:27:06.822Z,2.55
2023-08-08T06:29:33.645Z,1.58
2023-08-08T06:32:01.025Z,1.85
2023-08-08T06:34:27.964Z,3.00
2023-08-08T06:36:54.613Z,2.15
2023-08-08T06:39:22.914Z,1.95
2023-08-08T06:41:49.754Z,2.95
2023-08-08T06:44:16.406Z,2.67
2023-08-08T06:46:43.096Z,1.90
2023-08-08T06:49:14.451Z,2.35
2023-08-08T06:51:41.213Z,2.58
2023-08-08T06:54:10.406Z,2.65
2023-08-08T06:56:37.171Z,1.98
2023-08-08T06:59:03.834Z,2.40
2023-08-08T07:01:30.892Z,2.53
2023-08-08T07:03:58.588Z,1.92
2023-08-08T07:06:25.928Z,1.63
2023-08-08T07:08:52.570Z,2.90
2023-08-08T07:11:19.325Z,2.83
2023-08-08T07:13:45.996Z,1.90
2023-08-08T07:16:12.767Z,3.22
2023-08-08T07:18:44.214Z,2.50
2023-08-08T07:21:10.942Z,1.95
2023-08-08T07:23:37.621Z,1.92
2023-08-08T07:26:06.528Z,1.88
2023-08-08T07:28:35.522Z,2.67
2023-08-08T07:31:04.607Z,2.03
2023-08-08T07:33:31.551Z,1.77
2023-08-08T07:35:58.364Z,2.35
2023-08-08T07:38:25.001Z,1.83
2023-08-08T07:40:51.938Z,2.05
2023-08-08T07:43:18.575Z,1.80
2023-08-08T07:45:47.451Z,2.78
2023-08-08T07:48:14.134Z,2.03
2023-08-08T07:50:40.853Z,3.83
2023-08-08T07:53:07.550Z,1.70
2023-08-08T07:55:34.221Z,2.38
2023-08-08T07:58:03.358Z,2.20
2023-08-08T08:00:29.970Z,2.00
2023-08-08T08:02:56.734Z,1.50
2023-08-08T08:05:25.806Z,2.22
2023-08-08T08:07:55.121Z,2.05
2023-08-08T08:10:24.286Z,1.58
2023-08-08T08:12:59.203Z,1.20
2023-08-08T08:15:29.223Z,2.08
2023-08-08T08:17:55.970Z,1.55
2023-08-08T08:20:26.302Z,1.67
2023-08-08T08:22:53.051Z,1.27
2023-08-08T08:25:22.144Z,2.00
2023-08-08T08:27:48.851Z,1.63
2023-08-08T08:30:19.142Z,1.63
2023-08-08T08:32:46.782Z,1.75
2023-08-08T08:35:14.388Z,1.42
2023-08-08T08:37:43.474Z,1.23
2023-08-08T08:40:11.736Z,1.30
2023-08-08T08:42:40.289Z,1.42
2023-08-08T08:45:10.130Z,1.20
2023-08-08T08:47:45.136Z,1.17
2023-08-08T08:50:12.030Z,1.20
2023-08-08T08:52:38.751Z,1.45
2023-08-08T08:55:08.288Z,1.20
2023-08-08T08:57:36.027Z,1.73
2023-08-08T09:00:04.382Z,1.33
2023-08-08T09:02:31.771Z,1.00
2023-08-08T09:04:59.866Z,1.40
2023-08-08T09:07:31.176Z,1.23
2023-08-08T09:10:00.177Z,1.27
2023-08-08T09:12:29.588Z,0.75
2023-08-08T09:15:07.673Z,1.58
2023-08-08T09:17:47.205Z,1.23
2023-08-08T09:20:14.974Z,1.92
2023-08-08T09:22:46.484Z,1.65
2023-08-08T09:25:13.277Z,1.38
2023-08-08T09:27:42.177Z,1.75
2023-08-08T09:30:10.575Z,1.15
2023-08-08T09:32:37.276Z,1.25
2023-08-08T09:35:04.569Z,1.33
2023-08-08T09:37:33.696Z,1.30
2023-08-08T09:40:06.453Z,1.10
2023-08-08T09:42:35.594Z,1.55
2023-08-08T09:45:03.383Z,1.60
2023-08-08T09:47:33.178Z,1.67
2023-08-08T09:50:06.446Z,1.30
2023-08-08T09:52:35.530Z,1.33
2023-08-08T09:55:09.435Z,1.27
2023-08-08T09:57:37.057Z,1.75
2023-08-08T10:00:06.767Z,1.02
2023-08-08T10:02:37.090Z,0.98
2023-08-08T10:05:05.889Z,1.20
2023-08-08T10:07:35.040Z,1.02
2023-08-08T10:10:04.672Z,0.82
2023-08-08T10:12:32.210Z,1.52
2023-08-08T10:15:01.383Z,1.02
2023-08-08T10:17:29.018Z,1.00
2023-08-08T10:19:56.475Z,0.85
2023-08-08T10:22:25.410Z,1.60
2023-08-08T10:24:56.184Z,1.13
2023-08-08T10:27:40.487Z,1.00
2023-08-08T10:30:11.957Z,1.50
2023-08-08T10:32:47.832Z,1.13
2023-08-08T10:35:14.901Z,0.95
2023-08-08T10:37:55.297Z,1.60
2023-08-08T10:40:22.318Z,1.10
2023-08-08T10:42:48.973Z,0.75
2023-08-08T10:45:19.925Z,1.80
2023-08-08T10:47:46.701Z,1.33
2023-08-08T10:50:23.341Z,1.65
2023-08-08T10:52:53.246Z,1.83
2023-08-08T10:55:27.710Z,1.13
2023-08-08T10:57:55.782Z,1.30
2023-08-08T11:00:36.174Z,1.40
2023-08-08T11:03:06.050Z,1.02
2023-08-08T11:05:39.579Z,1.25
2023-08-08T11:08:07.672Z,1.33
2023-08-08T11:10:38.587Z,1.58
2023-08-08T11:13:09.720Z,1.17
2023-08-08T11:15:40.310Z,1.05
2023-08-08T11:18:07.313Z,1.45
2023-08-08T11:20:35.979Z,1.10
2023-08-08T11:23:04.836Z,0.60
2023-08-08T11:25:31.836Z,0.93
2023-08-08T11:28:01.048Z,1.50
2023-08-08T11:30:34.973Z,1.73
2023-08-08T11:35:35.388Z,1.75
2023-08-08T11:38:07.732Z,1.92
2023-08-08T11:40:34.680Z,1.10
2023-08-08T11:43:01.952Z,1.50
2023-08-08T11:45:29.379Z,1.38
2023-08-08T11:47:57.105Z,1.00
2023-08-08T11:50:25.726Z,1.70
2023-08-08T11:52:54.606Z,1.20
2023-08-08T11:55:25.226Z,1.90
2023-08-08T11:57:52.003Z,1.63
2023-08-08T12:00:19.327Z,1.67
2023-08-08T12:02:54.020Z,1.88
2023-08-08T12:05:23.593Z,2.08
2023-08-08T12:07:51.350Z,2.10
2023-08-08T12:10:23.549Z,1.17
2023-08-08T12:12:56.240Z,1.30
2023-08-08T12:15:22.951Z,1.63
2023-08-08T12:17:54.958Z,1.50
2023-08-08T12:20:21.641Z,1.90
2023-08-08T12:22:48.879Z,1.25
2023-08-08T12:25:15.735Z,1.92
2023-08-08T12:27:44.603Z,1.75
2023-08-08T12:30:11.404Z,1.75
2023-08-08T12:32:38.150Z,1.58
2023-08-08T12:35:05.307Z,1.13
2023-08-08T12:37:36.505Z,1.48
2023-08-08T12:40:05.370Z,1.40
2023-08-08T12:42:34.846Z,1.65
2023-08-08T12:45:01.764Z,2.45
2023-08-08T12:47:33.307Z,1.10
2023-08-08T12:50:02.489Z,1.30
2023-08-08T12:52:31.356Z,1.25
2023-08-08T12:54:58.048Z,1.20
2023-08-08T12:57:24.832Z,2.03
2023-08-08T12:59:51.469Z,1.42
2023-08-08T13:02:20.658Z,1.13
2023-08-08T13:04:47.699Z,0.77
2023-08-08T13:07:14.408Z,0.88
2023-08-08T13:09:45.695Z,0.98
2023-08-08T13:12:14.502Z,1.80
2023-08-08T13:14:41.147Z,1.25
2023-08-08T13:17:07.825Z,1.35
2023-08-08T13:19:34.472Z,0.82
2023-08-08T13:22:04.169Z,0.95
2023-08-08T13:24:34.164Z,0.80
2023-08-08T13:27:00.817Z,1.73
2023-08-08T13:29:27.525Z,0.60
2023-08-08T13:31:54.186Z,1.23
2023-08-08T13:34:20.913Z,1.23
2023-08-08T13:36:52.479Z,1.20
2023-08-08T13:39:21.363Z,1.30
2023-08-08T13:41:48.084Z,1.58
2023-08-08T13:44:14.833Z,1.02
2023-08-08T13:46:41.607Z,1.65
2023-08-08T13:49:10.519Z,0.85
2023-08-08T13:51:37.221Z,1.38
2023-08-08T13:54:04.111Z,0.88
2023-08-08T13:56:30.949Z,1.80
2023-08-08T13:58:59.816Z,1.25
2023-08-08T14:01:26.526Z,1.88
2023-08-08T14:03:53.688Z,1.27
2023-08-08T14:06:20.471Z,2.10
2023-08-08T14:08:47.129Z,1.45
2023-08-08T14:11:13.800Z,1.27
2023-08-08T14:13:41.899Z,2.05
2023-08-08T14:16:08.591Z,1.20
2023-08-08T14:18:40.054Z,1.50
2023-08-08T14:21:06.789Z,1.42
2023-08-08T14:23:35.880Z,1.52
2023-08-08T14:26:07.217Z,1.30
2023-08-08T14:28:33.898Z,1.02
2023-08-08T14:31:03.281Z,1.63
2023-08-08T14:33:29.890Z,1.73
2023-08-08T14:35:56.761Z,2.13
2023-08-08T14:38:26.386Z,1.42
2023-08-08T14:40:57.774Z,1.55
2023-08-08T14:43:26.919Z,1.40
2023-08-08T14:45:58.452Z,1.10
2023-08-08T14:48:28.256Z,1.58
2023-08-08T14:50:57.427Z,2.00
2023-08-08T14:53:26.549Z,1.80
2023-08-08T14:55:53.190Z,1.23
2023-08-08T14:58:23.171Z,1.23
2023-08-08T15:00:56.254Z,0.80
2023-08-08T15:03:23.018Z,1.35
2023-08-08T15:05:49.988Z,1.80
2023-08-08T15:08:18.802Z,1.67
2023-08-08T15:10:45.992Z,1.33
2023-08-08T15:13:13.069Z,1.40
2023-08-08T15:15:39.731Z,1.55
2023-08-08T15:18:06.377Z,1.52
2023-08-08T15:20:33.128Z,1.50
2023-08-08T15:23:01.833Z,1.83
2023-08-08T15:25:28.579Z,2.25
2023-08-08T15:28:00.131Z,1.38
2023-08-08T15:30:26.842Z,1.27
2023-08-08T15:32:55.994Z,1.30
2023-08-08T15:35:26.708Z,1.30
2023-08-08T15:37:54.313Z,1.45
2023-08-08T15:40:21.371Z,1.55
2023-08-08T15:42:50.548Z,1.20
2023-08-08T15:45:19.425Z,1.42
2023-08-08T15:47:48.983Z,1.05
2023-08-08T15:50:17.893Z,1.30
2023-08-08T15:52:44.623Z,1.63
2023-08-08T15:55:18.223Z,1.05
2023-08-08T15:57:44.975Z,1.05
2023-08-08T16:00:12.397Z,1.15
2023-08-08T16:02:41.309Z,1.10
2023-08-08T16:05:10.744Z,1.45
2023-08-08T16:07:39.675Z,1.38
2023-08-08T16:10:08.564Z,1.15
2023-08-08T16:12:37.511Z,1.05
2023-08-08T16:15:06.854Z,1.27
2023-08-08T16:17:33.739Z,1.25
2023-08-08T16:20:02.597Z,0.88
2023-08-08T16:22:31.483Z,0.85
2023-08-08T16:24:58.165Z,1.25
2023-08-08T16:27:24.764Z,1.15
2023-08-08T16:29:53.675Z,1.33
2023-08-08T16:32:20.404Z,1.13
2023-08-08T16:34:47.088Z,1.23
2023-08-08T16:37:13.817Z,0.98
2023-08-08T16:39:45.309Z,1.10
2023-08-08T16:42:16.332Z,0.85
2023-08-08T16:44:43.149Z,1.30
2023-08-08T16:47:10.208Z,1.30
2023-08-08T16:49:37.266Z,1.50
2023-08-08T16:52:04.497Z,1.10
2023-08-08T16:54:31.545Z,1.52
2023-08-08T16:56:58.196Z,1.02
2023-08-08T16:59:29.805Z,1.85
2023-08-08T17:01:56.648Z,1.55
2023-08-08T17:04:23.464Z,1.15
2023-08-08T17:06:50.107Z,0.82
2023-08-08T17:09:16.850Z,1.15
2023-08-08T17:11:43.496Z,2.30
2023-08-08T17:14:10.292Z,1.80
2023-08-08T17:16:39.595Z,1.38
2023-08-08T17:19:06.336Z,1.58
2023-08-08T17:21:35.547Z,1.63
2023-08-08T17:24:05.032Z,2.13
2023-08-08T17:26:31.747Z,1.45
2023-08-08T17:29:00.572Z,1.42
2023-08-08T17:31:27.250Z,1.50
2023-08-08T17:33:55.561Z,1.80
2023-08-08T17:36:27.105Z,1.45
2023-08-08T17:38:56.241Z,1.85
2023-08-08T17:41:24.992Z,1.65
2023-08-08T17:43:51.690Z,1.77
2023-08-08T17:46:18.361Z,1.45
2023-08-08T17:48:45.057Z,1.38
2023-08-08T17:51:13.979Z,2.45
2023-08-08T17:53:40.664Z,1.65
2023-08-08T17:56:07.277Z,2.28
2023-08-08T17:58:33.998Z,1.70
2023-08-08T18:01:05.874Z,1.70
2023-08-08T18:06:01.564Z,1.35
2023-08-08T18:08:33.149Z,1.30
2023-08-08T18:11:02.230Z,1.58
2023-08-08T18:13:28.900Z,1.60
2023-08-08T18:15:56.159Z,1.48
2023-08-08T18:18:24.611Z,0.95
2023-08-08T18:20:51.370Z,1.23
2023-08-08T18:23:21.964Z,1.20
2023-08-08T18:25:52.204Z,1.13
2023-08-08T18:28:19.285Z,1.63
2023-08-08T18:30:46.583Z,1.50
2023-08-08T18:33:13.580Z,1.67
2023-08-08T18:35:40.198Z,0.93
2023-08-08T18:38:06.959Z,1.73
2023-08-08T18:40:36.127Z,1.40
2023-08-08T18:43:07.522Z,1.35
2023-08-08T18:45:36.432Z,1.77
2023-08-08T18:48:07.028Z,1.60
2023-08-08T18:50:33.759Z,1.45
2023-08-08T18:53:00.572Z,1.67
2023-08-08T18:55:28.804Z,1.50
2023-08-08T18:57:59.360Z,1.92
2023-08-08T19:00:28.525Z,1.60
2023-08-08T19:02:55.225Z,1.60
2023-08-08T19:05:22.076Z,1.55
2023-08-08T19:07:48.929Z,2.10
2023-08-08T19:10:16.541Z,1.83
2023-08-08T19:12:43.670Z,1.67
2023-08-08T19:15:10.738Z,1.20
2023-08-08T19:17:53.571Z,1.13
2023-08-08T19:20:24.798Z,1.15
2023-08-08T19:22:54.979Z,1.48
2023-08-08T19:25:24.051Z,1.67
2023-08-08T19:27:50.685Z,2.05
2023-08-08T19:30:19.545Z,1.88
2023-08-08T19:32:46.318Z,1.50
2023-08-08T19:35:12.978Z,1.65
2023-08-08T19:37:39.641Z,1.92
2023-08-08T19:40:09.207Z,2.35
2023-08-08T19:42:38.997Z,1.75
2023-08-08T19:45:08.456Z,1.67
2023-08-08T19:47:35.134Z,1.33
2023-08-08T19:50:01.859Z,1.20
2023-08-08T19:52:28.797Z,1.30
2023-08-08T19:54:55.480Z,1.90
2023-08-08T19:57:22.384Z,1.83
2023-08-08T19:59:50.543Z,1.15
2023-08-08T20:02:17.398Z,1.40
2023-08-08T20:04:44.237Z,1.73
2023-08-08T20:07:15.612Z,1.42
2023-08-08T20:09:42.342Z,1.92
2023-08-08T20:12:09.012Z,2.20
2023-08-08T20:14:35.911Z,1.90
2023-08-08T20:17:03.323Z,3.13
2023-08-08T20:19:35.131Z,1.73
2023-08-08T20:22:06.533Z,1.58
2023-08-08T20:24:33.167Z,1.52
2023-08-08T20:26:59.823Z,2.85
2023-08-08T20:29:27.122Z,2.00
2023-08-08T20:31:53.833Z,2.53
2023-08-08T20:34:20.805Z,2.33
2023-08-08T20:36:49.834Z,2.15
2023-08-08T20:39:17.579Z,3.03
2023-08-08T20:41:46.384Z,2.42
2023-08-08T20:44:13.162Z,3.22
2023-08-08T20:46:39.952Z,1.20
2023-08-08T20:49:06.586Z,2.38
2023-08-08T20:51:33.260Z,2.42
2023-08-08T20:53:59.957Z,2.22
2023-08-08T20:56:26.660Z,1.33
2023-08-08T20:58:54.156Z,2.88
2023-08-08T21:01:23.299Z,2.60
2023-08-08T21:03:52.957Z,1.75
2023-08-08T21:06:24.907Z,3.50
2023-08-08T21:11:18.198Z,3.25
2023-08-08T21:13:44.800Z,3.28
2023-08-08T21:16:13.713Z,3.88
2023-08-08T21:18:42.762Z,2.75
2023-08-08T21:21:11.801Z,4.07
2023-08-08T21:23:40.761Z,2.60
2023-08-08T21:26:07.447Z,3.97
2023-08-08T21:28:36.315Z,2.97
2023-08-08T21:31:05.289Z,3.03
2023-08-08T21:33:34.461Z,2.50
2023-08-08T21:36:01.179Z,4.20
2023-08-08T21:38:27.960Z,3.47
2023-08-08T21:40:54.637Z,3.90
2023-08-08T21:43:23.738Z,2.08
2023-08-08T21:45:50.375Z,2.92
2023-08-08T21:48:17.115Z,2.95
2023-08-08T21:50:43.813Z,3.95
2023-08-08T21:53:10.516Z,3.65
2023-08-08T21:55:37.246Z,2.40
2023-08-08T21:58:06.371Z,3.00
2023-08-08T22:00:33.322Z,3.22
2023-08-08T22:03:02.558Z,2.70
2023-08-08T22:05:29.362Z,2.40
2023-08-08T22:08:02.176Z,3.05
2023-08-08T22:10:35.206Z,2.40
2023-08-08T22:13:02.896Z,2.47
2023-08-08T22:15:31.843Z,2.95
2023-08-08T22:18:11.953Z,3.05
2023-08-08T22:20:42.366Z,3.35
2023-08-08T22:23:19.666Z,2.67
2023-08-08T22:28:19.889Z,2.17
2023-08-08T22:30:49.243Z,3.40
2023-08-08T22:33:17.582Z,2.33
2023-08-08T22:35:44.305Z,2.35
2023-08-08T22:38:11.199Z,2.08
2023-08-08T22:40:40.187Z,2.00
2023-08-08T22:43:06.828Z,2.58
2023-08-08T22:45:34.073Z,2.53
2023-08-08T22:48:04.031Z,2.28
2023-08-08T22:50:30.794Z,1.75
2023-08-08T22:52:57.477Z,1.90
2023-08-08T22:55:28.577Z,1.80
2023-08-08T22:57:55.457Z,2.08
2023-08-08T23:00:22.141Z,2.03
2023-08-08T23:02:48.960Z,2.58
2023-08-08T23:05:15.812Z,2.22
2023-08-08T23:07:43.751Z,2.53
2023-08-08T23:10:11.098Z,2.70
2023-08-08T23:12:37.846Z,2.47
2023-08-08T23:15:05.155Z,2.63
2023-08-08T23:17:31.924Z,2.40
2023-08-08T23:19:58.684Z,2.25
2023-08-08T23:22:25.554Z,2.90
2023-08-08T23:24:52.214Z,1.98
2023-08-08T23:27:18.946Z,2.10
2023-08-08T23:29:47.865Z,2.63
2023-08-08T23:32:14.580Z,2.40
2023-08-08T23:34:41.348Z,2.30
2023-08-08T23:37:19.866Z,2.65
2023-08-08T23:39:49.749Z,2.25
2023-08-08T23:42:18.827Z,2.00
2023-08-08T23:44:47.683Z,2.63
2023-08-08T23:47:14.306Z,2.42
2023-08-08T23:49:40.992Z,1.90
2023-08-08T23:52:10.586Z,2.00
2023-08-08T23:54:37.263Z,2.40
2023-08-08T23:57:04.329Z,1.92
2023-08-08T23:59:31.264Z,1.90
